sensor_id;sensor_type;location;lat;lon;timestamp;P1;durP1;ratioP1;P2;durP2;ratioP2
21527;SDS011;10925;49.102;-0.370;2023-03-16T00:02:22;21.63;;;5.90;;
21527;SDS011;10925;49.102;-0.370;2023-03-16T00:04:50;21.02;;;4.80;;
21527;SDS011;10925;49.102;-0.370;2023-03-16T00:07:16;17.60;;;3.97;;
21527;SDS011;10925;49.102;-0.370;2023-03-16T00:09:41;15.65;;;4.22;;
21527;SDS011;10925;49.102;-0.370;2023-03-16T00:12:16;15.38;;;4.72;;
21527;SDS011;10925;49.102;-0.370;2023-03-16T00:14:47;22.50;;;5.88;;
21527;SDS011;10925;49.102;-0.370;2023-03-16T00:17:14;14.38;;;4.47;;
21527;SDS011;10925;49.102;-0.370;2023-03-16T00:19:51;14.50;;;5.20;;
21527;SDS011;10925;49.102;-0.370;2023-03-16T00:22:28;12.30;;;4.18;;
21527;SDS011;10925;49.102;-0.370;2023-03-16T00:24:55;9.52;;;4.13;;
21527;SDS011;10925;49.102;-0.370;2023-03-16T00:27:22;11.60;;;3.92;;
21527;SDS011;10925;49.102;-0.370;2023-03-16T00:29:48;11.77;;;3.05;;
21527;SDS011;10925;49.102;-0.370;2023-03-16T00:32:15;13.93;;;3.53;;
21527;SDS011;10925;49.102;-0.370;2023-03-16T00:34:45;13.27;;;2.85;;
21527;SDS011;10925;49.102;-0.370;2023-03-16T00:37:14;12.90;;;3.08;;
21527;SDS011;10925;49.102;-0.370;2023-03-16T00:39:40;14.57;;;3.38;;
21527;SDS011;10925;49.102;-0.370;2023-03-16T00:42:06;12.10;;;3.45;;
21527;SDS011;10925;49.102;-0.370;2023-03-16T00:44:31;13.25;;;2.75;;
21527;SDS011;10925;49.102;-0.370;2023-03-16T00:46:57;11.02;;;3.35;;
21527;SDS011;10925;49.102;-0.370;2023-03-16T00:49:22;11.25;;;2.25;;
21527;SDS011;10925;49.102;-0.370;2023-03-16T00:51:48;11.73;;;3.22;;
21527;SDS011;10925;49.102;-0.370;2023-03-16T00:54:13;10.02;;;2.95;;
21527;SDS011;10925;49.102;-0.370;2023-03-16T00:56:39;9.40;;;2.35;;
21527;SDS011;10925;49.102;-0.370;2023-03-16T00:59:07;9.40;;;2.33;;
21527;SDS011;10925;49.102;-0.370;2023-03-16T01:01:33;10.25;;;2.63;;
21527;SDS011;10925;49.102;-0.370;2023-03-16T01:04:00;5.43;;;2.35;;
21527;SDS011;10925;49.102;-0.370;2023-03-16T01:06:27;11.10;;;2.65;;
21527;SDS011;10925;49.102;-0.370;2023-03-16T01:08:54;10.95;;;2.42;;
21527;SDS011;10925;49.102;-0.370;2023-03-16T01:11:22;6.97;;;2.03;;
21527;SDS011;10925;49.102;-0.370;2023-03-16T01:13:49;7.95;;;2.55;;
21527;SDS011;10925;49.102;-0.370;2023-03-16T01:16:18;5.75;;;2.03;;
21527;SDS011;10925;49.102;-0.370;2023-03-16T01:18:44;11.00;;;2.85;;
21527;SDS011;10925;49.102;-0.370;2023-03-16T01:21:12;8.88;;;2.63;;
21527;SDS011;10925;49.102;-0.370;2023-03-16T01:23:40;6.88;;;2.42;;
21527;SDS011;10925;49.102;-0.370;2023-03-16T01:26:08;11.07;;;2.38;;
21527;SDS011;10925;49.102;-0.370;2023-03-16T01:28:33;8.40;;;2.13;;
21527;SDS011;10925;49.102;-0.370;2023-03-16T01:31:00;9.35;;;2.08;;
21527;SDS011;10925;49.102;-0.370;2023-03-16T01:33:30;7.75;;;2.03;;
21527;SDS011;10925;49.102;-0.370;2023-03-16T01:35:58;9.18;;;2.58;;
21527;SDS011;10925;49.102;-0.370;2023-03-16T01:38:25;7.45;;;2.35;;
21527;SDS011;10925;49.102;-0.370;2023-03-16T01:40:52;8.48;;;2.17;;
21527;SDS011;10925;49.102;-0.370;2023-03-16T01:43:21;8.25;;;2.30;;
21527;SDS011;10925;49.102;-0.370;2023-03-16T01:48:27;6.28;;;2.53;;
21527;SDS011;10925;49.102;-0.370;2023-03-16T01:50:53;11.75;;;2.60;;
21527;SDS011;10925;49.102;-0.370;2023-03-16T01:53:22;11.57;;;2.65;;
21527;SDS011;10925;49.102;-0.370;2023-03-16T01:55:49;8.63;;;2.17;;
21527;SDS011;10925;49.102;-0.370;2023-03-16T01:58:16;11.45;;;2.53;;
21527;SDS011;10925;49.102;-0.370;2023-03-16T02:00:43;9.98;;;2.25;;
21527;SDS011;10925;49.102;-0.370;2023-03-16T02:03:12;7.07;;;1.77;;
21527;SDS011;10925;49.102;-0.370;2023-03-16T02:08:34;6.45;;;1.98;;
21527;SDS011;10925;49.102;-0.370;2023-03-16T02:11:00;6.68;;;2.28;;
21527;SDS011;10925;49.102;-0.370;2023-03-16T02:13:26;6.63;;;1.83;;
21527;SDS011;10925;49.102;-0.370;2023-03-16T02:15:53;3.75;;;1.50;;
21527;SDS011;10925;49.102;-0.370;2023-03-16T02:18:19;5.78;;;1.90;;
21527;SDS011;10925;49.102;-0.370;2023-03-16T02:23:13;5.82;;;1.92;;
21527;SDS011;10925;49.102;-0.370;2023-03-16T02:28:18;5.50;;;1.63;;
21527;SDS011;10925;49.102;-0.370;2023-03-16T02:30:46;7.43;;;1.77;;
21527;SDS011;10925;49.102;-0.370;2023-03-16T02:33:11;6.97;;;1.30;;
21527;SDS011;10925;49.102;-0.370;2023-03-16T02:35:37;7.03;;;1.55;;
21527;SDS011;10925;49.102;-0.370;2023-03-16T02:38:03;8.75;;;1.50;;
21527;SDS011;10925;49.102;-0.370;2023-03-16T02:40:29;5.68;;;1.58;;
21527;SDS011;10925;49.102;-0.370;2023-03-16T02:42:59;4.32;;;1.48;;
21527;SDS011;10925;49.102;-0.370;2023-03-16T02:45:34;10.30;;;2.00;;
21527;SDS011;10925;49.102;-0.370;2023-03-16T02:48:01;5.75;;;1.75;;
21527;SDS011;10925;49.102;-0.370;2023-03-16T02:50:28;8.25;;;1.83;;
21527;SDS011;10925;49.102;-0.370;2023-03-16T02:52:54;6.05;;;1.85;;
21527;SDS011;10925;49.102;-0.370;2023-03-16T02:55:21;7.80;;;1.92;;
21527;SDS011;10925;49.102;-0.370;2023-03-16T02:57:47;10.15;;;1.73;;
21527;SDS011;10925;49.102;-0.370;2023-03-16T03:00:12;10.02;;;1.90;;
21527;SDS011;10925;49.102;-0.370;2023-03-16T03:02:48;11.00;;;2.27;;
21527;SDS011;10925;49.102;-0.370;2023-03-16T03:05:13;7.80;;;2.03;;
21527;SDS011;10925;49.102;-0.370;2023-03-16T03:07:39;5.18;;;1.98;;
21527;SDS011;10925;49.102;-0.370;2023-03-16T03:10:06;5.90;;;1.77;;
21527;SDS011;10925;49.102;-0.370;2023-03-16T03:12:33;7.45;;;1.80;;
21527;SDS011;10925;49.102;-0.370;2023-03-16T03:14:58;7.88;;;2.30;;
21527;SDS011;10925;49.102;-0.370;2023-03-16T03:17:25;6.63;;;1.92;;
21527;SDS011;10925;49.102;-0.370;2023-03-16T03:19:59;7.22;;;2.90;;
21527;SDS011;10925;49.102;-0.370;2023-03-16T03:22:25;14.95;;;2.05;;
21527;SDS011;10925;49.102;-0.370;2023-03-16T03:24:52;8.55;;;1.90;;
21527;SDS011;10925;49.102;-0.370;2023-03-16T03:27:18;8.20;;;1.90;;
21527;SDS011;10925;49.102;-0.370;2023-03-16T03:29:45;12.00;;;1.80;;
21527;SDS011;10925;49.102;-0.370;2023-03-16T03:32:12;7.47;;;2.53;;
21527;SDS011;10925;49.102;-0.370;2023-03-16T03:34:39;9.10;;;2.08;;
21527;SDS011;10925;49.102;-0.370;2023-03-16T03:37:06;8.07;;;1.83;;
21527;SDS011;10925;49.102;-0.370;2023-03-16T03:39:34;9.45;;;2.10;;
21527;SDS011;10925;49.102;-0.370;2023-03-16T03:42:01;7.07;;;1.90;;
21527;SDS011;10925;49.102;-0.370;2023-03-16T03:44:29;8.73;;;2.03;;
21527;SDS011;10925;49.102;-0.370;2023-03-16T03:47:00;14.25;;;1.90;;
21527;SDS011;10925;49.102;-0.370;2023-03-16T03:49:27;8.35;;;2.10;;
21527;SDS011;10925;49.102;-0.370;2023-03-16T03:51:53;11.73;;;2.58;;
21527;SDS011;10925;49.102;-0.370;2023-03-16T03:54:24;6.78;;;1.83;;
21527;SDS011;10925;49.102;-0.370;2023-03-16T03:56:51;11.02;;;2.10;;
21527;SDS011;10925;49.102;-0.370;2023-03-16T03:59:19;10.80;;;1.92;;
21527;SDS011;10925;49.102;-0.370;2023-03-16T04:01:48;7.65;;;2.85;;
21527;SDS011;10925;49.102;-0.370;2023-03-16T04:04:15;7.47;;;1.80;;
21527;SDS011;10925;49.102;-0.370;2023-03-16T04:06:40;8.82;;;2.00;;
21527;SDS011;10925;49.102;-0.370;2023-03-16T04:09:07;8.70;;;2.10;;
21527;SDS011;10925;49.102;-0.370;2023-03-16T04:11:35;10.50;;;2.05;;
21527;SDS011;10925;49.102;-0.370;2023-03-16T04:14:01;11.35;;;2.05;;
21527;SDS011;10925;49.102;-0.370;2023-03-16T04:16:26;12.20;;;2.03;;
21527;SDS011;10925;49.102;-0.370;2023-03-16T04:18:52;15.15;;;2.28;;
21527;SDS011;10925;49.102;-0.370;2023-03-16T04:21:22;13.98;;;2.70;;
21527;SDS011;10925;49.102;-0.370;2023-03-16T04:23:49;13.05;;;2.45;;
21527;SDS011;10925;49.102;-0.370;2023-03-16T04:26:18;10.82;;;2.42;;
21527;SDS011;10925;49.102;-0.370;2023-03-16T04:28:44;12.40;;;2.30;;
21527;SDS011;10925;49.102;-0.370;2023-03-16T04:31:14;12.07;;;2.50;;
21527;SDS011;10925;49.102;-0.370;2023-03-16T04:33:44;10.93;;;2.83;;
21527;SDS011;10925;49.102;-0.370;2023-03-16T04:36:11;7.90;;;2.05;;
21527;SDS011;10925;49.102;-0.370;2023-03-16T04:38:39;8.82;;;1.88;;
21527;SDS011;10925;49.102;-0.370;2023-03-16T04:41:09;7.57;;;1.98;;
21527;SDS011;10925;49.102;-0.370;2023-03-16T04:43:43;8.48;;;2.10;;
21527;SDS011;10925;49.102;-0.370;2023-03-16T04:46:19;5.82;;;1.75;;
21527;SDS011;10925;49.102;-0.370;2023-03-16T04:48:49;7.70;;;2.20;;
21527;SDS011;10925;49.102;-0.370;2023-03-16T04:51:23;8.80;;;2.13;;
21527;SDS011;10925;49.102;-0.370;2023-03-16T04:54:02;13.10;;;2.00;;
21527;SDS011;10925;49.102;-0.370;2023-03-16T04:56:28;6.32;;;1.75;;
21527;SDS011;10925;49.102;-0.370;2023-03-16T04:58:53;11.98;;;2.15;;
21527;SDS011;10925;49.102;-0.370;2023-03-16T05:01:21;12.73;;;2.03;;
21527;SDS011;10925;49.102;-0.370;2023-03-16T05:03:47;11.07;;;2.13;;
21527;SDS011;10925;49.102;-0.370;2023-03-16T05:06:16;6.82;;;1.95;;
21527;SDS011;10925;49.102;-0.370;2023-03-16T05:08:44;7.15;;;1.83;;
21527;SDS011;10925;49.102;-0.370;2023-03-16T05:11:09;8.75;;;1.80;;
21527;SDS011;10925;49.102;-0.370;2023-03-16T05:13:35;7.03;;;1.88;;
21527;SDS011;10925;49.102;-0.370;2023-03-16T05:16:00;8.00;;;2.08;;
21527;SDS011;10925;49.102;-0.370;2023-03-16T05:18:26;8.10;;;2.15;;
21527;SDS011;10925;49.102;-0.370;2023-03-16T05:21:02;6.82;;;1.92;;
21527;SDS011;10925;49.102;-0.370;2023-03-16T05:23:41;6.13;;;1.75;;
21527;SDS011;10925;49.102;-0.370;2023-03-16T05:26:07;8.27;;;2.33;;
21527;SDS011;10925;49.102;-0.370;2023-03-16T05:28:33;12.82;;;2.20;;
21527;SDS011;10925;49.102;-0.370;2023-03-16T05:30:59;9.43;;;2.25;;
21527;SDS011;10925;49.102;-0.370;2023-03-16T05:33:28;8.38;;;1.88;;
21527;SDS011;10925;49.102;-0.370;2023-03-16T05:36:01;8.13;;;2.42;;
21527;SDS011;10925;49.102;-0.370;2023-03-16T05:38:30;9.13;;;2.00;;
21527;SDS011;10925;49.102;-0.370;2023-03-16T05:40:56;9.45;;;2.10;;
21527;SDS011;10925;49.102;-0.370;2023-03-16T05:46:23;13.23;;;2.45;;
21527;SDS011;10925;49.102;-0.370;2023-03-16T05:48:50;9.77;;;2.00;;
21527;SDS011;10925;49.102;-0.370;2023-03-16T05:51:16;11.23;;;2.22;;
21527;SDS011;10925;49.102;-0.370;2023-03-16T05:53:43;9.40;;;2.13;;
21527;SDS011;10925;49.102;-0.370;2023-03-16T05:56:20;10.63;;;2.78;;
21527;SDS011;10925;49.102;-0.370;2023-03-16T05:58:45;7.18;;;2.47;;
21527;SDS011;10925;49.102;-0.370;2023-03-16T06:01:13;7.90;;;2.40;;
21527;SDS011;10925;49.102;-0.370;2023-03-16T06:03:42;9.43;;;2.58;;
21527;SDS011;10925;49.102;-0.370;2023-03-16T06:06:09;7.82;;;2.13;;
21527;SDS011;10925;49.102;-0.370;2023-03-16T06:08:47;12.10;;;2.60;;
21527;SDS011;10925;49.102;-0.370;2023-03-16T06:11:14;6.68;;;2.20;;
21527;SDS011;10925;49.102;-0.370;2023-03-16T06:13:44;8.32;;;2.45;;
21527;SDS011;10925;49.102;-0.370;2023-03-16T06:16:10;10.73;;;2.55;;
21527;SDS011;10925;49.102;-0.370;2023-03-16T06:18:40;11.07;;;4.50;;
21527;SDS011;10925;49.102;-0.370;2023-03-16T06:21:07;8.40;;;3.05;;
21527;SDS011;10925;49.102;-0.370;2023-03-16T06:23:34;7.72;;;2.95;;
21527;SDS011;10925;49.102;-0.370;2023-03-16T06:26:01;9.98;;;2.65;;
21527;SDS011;10925;49.102;-0.370;2023-03-16T06:28:30;10.32;;;3.42;;
21527;SDS011;10925;49.102;-0.370;2023-03-16T06:30:57;10.40;;;3.55;;
21527;SDS011;10925;49.102;-0.370;2023-03-16T06:33:24;14.15;;;3.22;;
21527;SDS011;10925;49.102;-0.370;2023-03-16T06:35:52;11.95;;;2.75;;
21527;SDS011;10925;49.102;-0.370;2023-03-16T06:38:19;11.20;;;2.75;;
21527;SDS011;10925;49.102;-0.370;2023-03-16T06:40:50;9.15;;;2.65;;
21527;SDS011;10925;49.102;-0.370;2023-03-16T06:43:15;8.15;;;2.50;;
21527;SDS011;10925;49.102;-0.370;2023-03-16T06:45:41;9.95;;;2.47;;
21527;SDS011;10925;49.102;-0.370;2023-03-16T06:48:07;10.13;;;2.10;;
21527;SDS011;10925;49.102;-0.370;2023-03-16T06:50:34;9.80;;;2.17;;
21527;SDS011;10925;49.102;-0.370;2023-03-16T06:53:00;11.35;;;2.58;;
21527;SDS011;10925;49.102;-0.370;2023-03-16T06:55:25;13.50;;;3.40;;
21527;SDS011;10925;49.102;-0.370;2023-03-16T06:57:51;10.95;;;3.40;;
21527;SDS011;10925;49.102;-0.370;2023-03-16T07:00:18;11.70;;;3.88;;
21527;SDS011;10925;49.102;-0.370;2023-03-16T07:02:45;9.95;;;3.40;;
21527;SDS011;10925;49.102;-0.370;2023-03-16T07:05:12;8.23;;;3.35;;
21527;SDS011;10925;49.102;-0.370;2023-03-16T07:07:41;10.52;;;4.18;;
21527;SDS011;10925;49.102;-0.370;2023-03-16T07:10:09;9.30;;;3.30;;
21527;SDS011;10925;49.102;-0.370;2023-03-16T07:12:36;11.90;;;3.35;;
21527;SDS011;10925;49.102;-0.370;2023-03-16T07:15:04;10.75;;;3.78;;
21527;SDS011;10925;49.102;-0.370;2023-03-16T07:17:31;14.35;;;3.00;;
21527;SDS011;10925;49.102;-0.370;2023-03-16T07:20:01;10.85;;;2.92;;
21527;SDS011;10925;49.102;-0.370;2023-03-16T07:22:31;12.07;;;3.03;;
21527;SDS011;10925;49.102;-0.370;2023-03-16T07:24:59;8.55;;;2.38;;
21527;SDS011;10925;49.102;-0.370;2023-03-16T07:27:26;9.85;;;2.70;;
21527;SDS011;10925;49.102;-0.370;2023-03-16T07:29:56;11.00;;;2.83;;
21527;SDS011;10925;49.102;-0.370;2023-03-16T07:32:23;10.65;;;2.78;;
21527;SDS011;10925;49.102;-0.370;2023-03-16T07:34:51;8.05;;;2.75;;
21527;SDS011;10925;49.102;-0.370;2023-03-16T07:37:16;8.00;;;2.55;;
21527;SDS011;10925;49.102;-0.370;2023-03-16T07:39:42;10.02;;;2.63;;
21527;SDS011;10925;49.102;-0.370;2023-03-16T07:42:15;7.22;;;2.03;;
21527;SDS011;10925;49.102;-0.370;2023-03-16T07:45:03;10.00;;;2.72;;
21527;SDS011;10925;49.102;-0.370;2023-03-16T07:47:30;7.78;;;2.80;;
21527;SDS011;10925;49.102;-0.370;2023-03-16T07:50:07;11.07;;;2.55;;
21527;SDS011;10925;49.102;-0.370;2023-03-16T07:52:34;10.75;;;2.55;;
21527;SDS011;10925;49.102;-0.370;2023-03-16T07:55:03;10.27;;;2.60;;
21527;SDS011;10925;49.102;-0.370;2023-03-16T07:57:31;13.07;;;3.72;;
21527;SDS011;10925;49.102;-0.370;2023-03-16T07:59:58;8.80;;;3.30;;
21527;SDS011;10925;49.102;-0.370;2023-03-16T08:02:24;12.68;;;2.83;;
21527;SDS011;10925;49.102;-0.370;2023-03-16T08:04:49;9.00;;;3.00;;
21527;SDS011;10925;49.102;-0.370;2023-03-16T08:07:17;9.57;;;3.17;;
21527;SDS011;10925;49.102;-0.370;2023-03-16T08:09:52;12.18;;;3.38;;
21527;SDS011;10925;49.102;-0.370;2023-03-16T08:12:19;9.52;;;3.38;;
21527;SDS011;10925;49.102;-0.370;2023-03-16T08:14:46;11.02;;;3.15;;
21527;SDS011;10925;49.102;-0.370;2023-03-16T08:17:13;11.02;;;2.97;;
21527;SDS011;10925;49.102;-0.370;2023-03-16T08:19:40;11.68;;;3.10;;
21527;SDS011;10925;49.102;-0.370;2023-03-16T08:22:07;13.40;;;3.33;;
21527;SDS011;10925;49.102;-0.370;2023-03-16T08:24:32;11.70;;;3.17;;
21527;SDS011;10925;49.102;-0.370;2023-03-16T08:27:02;12.55;;;3.22;;
21527;SDS011;10925;49.102;-0.370;2023-03-16T08:29:29;11.25;;;2.72;;
21527;SDS011;10925;49.102;-0.370;2023-03-16T08:31:54;8.88;;;2.95;;
21527;SDS011;10925;49.102;-0.370;2023-03-16T08:34:34;8.20;;;2.80;;
21527;SDS011;10925;49.102;-0.370;2023-03-16T08:37:00;9.73;;;3.17;;
21527;SDS011;10925;49.102;-0.370;2023-03-16T08:39:27;9.18;;;2.80;;
21527;SDS011;10925;49.102;-0.370;2023-03-16T08:41:55;11.20;;;3.13;;
21527;SDS011;10925;49.102;-0.370;2023-03-16T08:44:21;8.68;;;2.13;;
21527;SDS011;10925;49.102;-0.370;2023-03-16T08:46:52;6.35;;;1.67;;
21527;SDS011;10925;49.102;-0.370;2023-03-16T08:49:20;10.82;;;2.03;;
21527;SDS011;10925;49.102;-0.370;2023-03-16T08:51:45;6.72;;;1.50;;
21527;SDS011;10925;49.102;-0.370;2023-03-16T08:54:11;7.07;;;1.73;;
21527;SDS011;10925;49.102;-0.370;2023-03-16T08:56:38;9.32;;;2.10;;
21527;SDS011;10925;49.102;-0.370;2023-03-16T08:59:04;9.85;;;1.80;;
21527;SDS011;10925;49.102;-0.370;2023-03-16T09:01:29;6.15;;;1.55;;
21527;SDS011;10925;49.102;-0.370;2023-03-16T09:03:56;5.30;;;1.35;;
21527;SDS011;10925;49.102;-0.370;2023-03-16T09:06:21;4.38;;;1.60;;
21527;SDS011;10925;49.102;-0.370;2023-03-16T09:08:47;5.82;;;2.15;;
21527;SDS011;10925;49.102;-0.370;2023-03-16T09:11:15;9.15;;;2.05;;
21527;SDS011;10925;49.102;-0.370;2023-03-16T09:13:41;3.80;;;1.70;;
21527;SDS011;10925;49.102;-0.370;2023-03-16T09:16:09;3.97;;;1.50;;
21527;SDS011;10925;49.102;-0.370;2023-03-16T09:18:38;7.70;;;1.90;;
21527;SDS011;10925;49.102;-0.370;2023-03-16T09:21:04;7.70;;;1.77;;
21527;SDS011;10925;49.102;-0.370;2023-03-16T09:23:30;5.53;;;1.70;;
21527;SDS011;10925;49.102;-0.370;2023-03-16T09:25:57;5.38;;;1.85;;
21527;SDS011;10925;49.102;-0.370;2023-03-16T09:28:25;4.55;;;1.50;;
21527;SDS011;10925;49.102;-0.370;2023-03-16T09:30:57;7.97;;;1.70;;
21527;SDS011;10925;49.102;-0.370;2023-03-16T09:33:24;6.78;;;1.60;;
21527;SDS011;10925;49.102;-0.370;2023-03-16T09:35:52;6.78;;;2.42;;
21527;SDS011;10925;49.102;-0.370;2023-03-16T09:38:18;6.45;;;1.60;;
21527;SDS011;10925;49.102;-0.370;2023-03-16T09:40:45;5.80;;;1.60;;
21527;SDS011;10925;49.102;-0.370;2023-03-16T09:48:17;4.97;;;1.60;;
21527;SDS011;10925;49.102;-0.370;2023-03-16T09:50:46;5.40;;;1.85;;
21527;SDS011;10925;49.102;-0.370;2023-03-16T09:55:41;7.60;;;2.45;;
21527;SDS011;10925;49.102;-0.370;2023-03-16T09:58:17;9.40;;;1.50;;
21527;SDS011;10925;49.102;-0.370;2023-03-16T10:03:45;9.30;;;1.95;;
21527;SDS011;10925;49.102;-0.370;2023-03-16T10:06:10;11.98;;;1.58;;
21527;SDS011;10925;49.102;-0.370;2023-03-16T10:08:40;8.27;;;1.52;;
21527;SDS011;10925;49.102;-0.370;2023-03-16T10:16:20;4.03;;;1.80;;
21527;SDS011;10925;49.102;-0.370;2023-03-16T10:18:49;7.85;;;1.60;;
21527;SDS011;10925;49.102;-0.370;2023-03-16T10:21:17;7.85;;;1.77;;
21527;SDS011;10925;49.102;-0.370;2023-03-16T10:23:45;7.70;;;1.90;;
21527;SDS011;10925;49.102;-0.370;2023-03-16T10:26:15;7.88;;;1.92;;
21527;SDS011;10925;49.102;-0.370;2023-03-16T10:28:44;8.25;;;2.17;;
21527;SDS011;10925;49.102;-0.370;2023-03-16T10:31:12;4.60;;;1.90;;
21527;SDS011;10925;49.102;-0.370;2023-03-16T10:33:38;7.90;;;3.05;;
21527;SDS011;10925;49.102;-0.370;2023-03-16T10:43:34;6.68;;;1.35;;
21527;SDS011;10925;49.102;-0.370;2023-03-16T10:46:02;4.15;;;1.83;;
21527;SDS011;10925;49.102;-0.370;2023-03-16T10:48:30;6.50;;;1.30;;
21527;SDS011;10925;49.102;-0.370;2023-03-16T10:50:59;7.07;;;1.77;;
21527;SDS011;10925;49.102;-0.370;2023-03-16T10:53:29;7.95;;;1.50;;
21527;SDS011;10925;49.102;-0.370;2023-03-16T10:55:57;6.25;;;1.60;;
21527;SDS011;10925;49.102;-0.370;2023-03-16T10:58:25;3.85;;;1.20;;
21527;SDS011;10925;49.102;-0.370;2023-03-16T11:00:56;5.25;;;1.55;;
21527;SDS011;10925;49.102;-0.370;2023-03-16T11:03:25;6.18;;;1.50;;
21527;SDS011;10925;49.102;-0.370;2023-03-16T11:06:02;7.07;;;1.67;;
21527;SDS011;10925;49.102;-0.370;2023-03-16T11:10:57;7.65;;;2.22;;
21527;SDS011;10925;49.102;-0.370;2023-03-16T11:13:30;6.03;;;1.60;;
21527;SDS011;10925;49.102;-0.370;2023-03-16T11:18:42;5.22;;;1.40;;
21527;SDS011;10925;49.102;-0.370;2023-03-16T11:23:47;4.68;;;1.13;;
21527;SDS011;10925;49.102;-0.370;2023-03-16T11:26:18;5.20;;;1.33;;
21527;SDS011;10925;49.102;-0.370;2023-03-16T11:28:49;5.43;;;1.20;;
21527;SDS011;10925;49.102;-0.370;2023-03-16T11:34:07;8.23;;;1.52;;
21527;SDS011;10925;49.102;-0.370;2023-03-16T11:36:59;3.17;;;1.35;;
21527;SDS011;10925;49.102;-0.370;2023-03-16T11:49:54;9.30;;;1.60;;
21527;SDS011;10925;49.102;-0.370;2023-03-16T12:10:45;6.25;;;1.80;;
21527;SDS011;10925;49.102;-0.370;2023-03-16T12:15:54;7.10;;;1.98;;
21527;SDS011;10925;49.102;-0.370;2023-03-16T12:21:33;3.60;;;1.13;;
21527;SDS011;10925;49.102;-0.370;2023-03-16T12:24:02;5.00;;;1.30;;
21527;SDS011;10925;49.102;-0.370;2023-03-16T12:26:33;4.93;;;1.42;;
21527;SDS011;10925;49.102;-0.370;2023-03-16T12:29:02;3.45;;;1.08;;
21527;SDS011;10925;49.102;-0.370;2023-03-16T12:36:44;5.15;;;1.60;;
21527;SDS011;10925;49.102;-0.370;2023-03-16T12:49:24;4.10;;;1.08;;
21527;SDS011;10925;49.102;-0.370;2023-03-16T12:51:59;2.53;;;1.10;;
21527;SDS011;10925;49.102;-0.370;2023-03-16T12:54:27;2.33;;;1.02;;
21527;SDS011;10925;49.102;-0.370;2023-03-16T12:57:02;3.17;;;1.20;;
21527;SDS011;10925;49.102;-0.370;2023-03-16T12:59:38;2.40;;;1.10;;
21527;SDS011;10925;49.102;-0.370;2023-03-16T13:04:38;2.97;;;0.90;;
21527;SDS011;10925;49.102;-0.370;2023-03-16T13:07:07;3.35;;;1.17;;
21527;SDS011;10925;49.102;-0.370;2023-03-16T13:09:37;3.08;;;1.05;;
21527;SDS011;10925;49.102;-0.370;2023-03-16T13:12:06;5.20;;;1.40;;
21527;SDS011;10925;49.102;-0.370;2023-03-16T13:14:34;2.38;;;1.08;;
21527;SDS011;10925;49.102;-0.370;2023-03-16T13:17:43;3.28;;;1.10;;
21527;SDS011;10925;49.102;-0.370;2023-03-16T13:20:25;3.80;;;1.10;;
21527;SDS011;10925;49.102;-0.370;2023-03-16T13:23:07;4.22;;;1.30;;
21527;SDS011;10925;49.102;-0.370;2023-03-16T13:25:39;3.30;;;1.20;;
21527;SDS011;10925;49.102;-0.370;2023-03-16T13:28:14;3.97;;;1.10;;
21527;SDS011;10925;49.102;-0.370;2023-03-16T13:30:46;3.22;;;1.25;;
21527;SDS011;10925;49.102;-0.370;2023-03-16T13:35:47;5.40;;;1.15;;
21527;SDS011;10925;49.102;-0.370;2023-03-16T13:38:14;4.53;;;1.23;;
21527;SDS011;10925;49.102;-0.370;2023-03-16T13:40:50;1.27;;;1.05;;
21527;SDS011;10925;49.102;-0.370;2023-03-16T13:43:21;2.33;;;1.40;;
21527;SDS011;10925;49.102;-0.370;2023-03-16T13:45:47;4.10;;;1.23;;
21527;SDS011;10925;49.102;-0.370;2023-03-16T13:48:13;3.72;;;1.02;;
21527;SDS011;10925;49.102;-0.370;2023-03-16T13:50:39;3.47;;;1.27;;
21527;SDS011;10925;49.102;-0.370;2023-03-16T13:53:12;3.25;;;1.38;;
21527;SDS011;10925;49.102;-0.370;2023-03-16T13:55:38;4.55;;;1.98;;
21527;SDS011;10925;49.102;-0.370;2023-03-16T13:58:04;3.78;;;1.40;;
21527;SDS011;10925;49.102;-0.370;2023-03-16T14:00:31;3.38;;;1.27;;
21527;SDS011;10925;49.102;-0.370;2023-03-16T14:02:58;1.83;;;1.20;;
21527;SDS011;10925;49.102;-0.370;2023-03-16T14:05:27;5.38;;;1.80;;
21527;SDS011;10925;49.102;-0.370;2023-03-16T14:07:54;3.78;;;1.40;;
21527;SDS011;10925;49.102;-0.370;2023-03-16T14:10:20;3.80;;;1.10;;
21527;SDS011;10925;49.102;-0.370;2023-03-16T14:12:53;4.00;;;1.40;;
21527;SDS011;10925;49.102;-0.370;2023-03-16T14:15:19;2.88;;;1.50;;
21527;SDS011;10925;49.102;-0.370;2023-03-16T14:17:45;2.00;;;1.15;;
21527;SDS011;10925;49.102;-0.370;2023-03-16T14:20:15;5.50;;;1.30;;
21527;SDS011;10925;49.102;-0.370;2023-03-16T14:22:43;7.10;;;1.30;;
21527;SDS011;10925;49.102;-0.370;2023-03-16T14:25:15;3.40;;;1.67;;
21527;SDS011;10925;49.102;-0.370;2023-03-16T14:27:43;3.22;;;1.30;;
21527;SDS011;10925;49.102;-0.370;2023-03-16T14:30:19;1.88;;;0.90;;
21527;SDS011;10925;49.102;-0.370;2023-03-16T14:35:27;3.55;;;1.10;;
21527;SDS011;10925;49.102;-0.370;2023-03-16T14:37:53;4.43;;;1.02;;
21527;SDS011;10925;49.102;-0.370;2023-03-16T14:40:22;4.28;;;1.20;;
21527;SDS011;10925;49.102;-0.370;2023-03-16T14:42:50;3.08;;;1.00;;
21527;SDS011;10925;49.102;-0.370;2023-03-16T14:45:16;2.35;;;0.75;;
21527;SDS011;10925;49.102;-0.370;2023-03-16T14:47:46;4.50;;;1.42;;
21527;SDS011;10925;49.102;-0.370;2023-03-16T14:50:17;5.10;;;1.10;;
21527;SDS011;10925;49.102;-0.370;2023-03-16T14:52:47;6.45;;;1.25;;
21527;SDS011;10925;49.102;-0.370;2023-03-16T14:55:15;8.07;;;1.38;;
21527;SDS011;10925;49.102;-0.370;2023-03-16T14:57:42;4.25;;;1.00;;
21527;SDS011;10925;49.102;-0.370;2023-03-16T15:00:12;2.25;;;1.00;;
21527;SDS011;10925;49.102;-0.370;2023-03-16T15:02:39;3.03;;;1.08;;
21527;SDS011;10925;49.102;-0.370;2023-03-16T15:05:07;5.55;;;1.35;;
21527;SDS011;10925;49.102;-0.370;2023-03-16T15:07:34;3.45;;;1.20;;
21527;SDS011;10925;49.102;-0.370;2023-03-16T15:10:18;5.15;;;1.10;;
21527;SDS011;10925;49.102;-0.370;2023-03-16T15:12:47;4.22;;;1.60;;
21527;SDS011;10925;49.102;-0.370;2023-03-16T15:15:21;4.10;;;1.02;;
21527;SDS011;10925;49.102;-0.370;2023-03-16T15:17:48;4.97;;;1.85;;
21527;SDS011;10925;49.102;-0.370;2023-03-16T15:20:25;4.03;;;1.65;;
21527;SDS011;10925;49.102;-0.370;2023-03-16T15:22:53;3.88;;;1.30;;
21527;SDS011;10925;49.102;-0.370;2023-03-16T15:25:42;5.25;;;1.92;;
21527;SDS011;10925;49.102;-0.370;2023-03-16T15:28:10;7.43;;;2.67;;
21527;SDS011;10925;49.102;-0.370;2023-03-16T15:30:36;3.92;;;1.83;;
21527;SDS011;10925;49.102;-0.370;2023-03-16T15:33:03;3.22;;;1.25;;
21527;SDS011;10925;49.102;-0.370;2023-03-16T15:35:30;4.25;;;1.65;;
21527;SDS011;10925;49.102;-0.370;2023-03-16T15:37:57;3.90;;;1.50;;
21527;SDS011;10925;49.102;-0.370;2023-03-16T15:40:26;2.92;;;1.70;;
21527;SDS011;10925;49.102;-0.370;2023-03-16T15:42:52;6.35;;;1.83;;
21527;SDS011;10925;49.102;-0.370;2023-03-16T15:45:19;2.95;;;1.52;;
21527;SDS011;10925;49.102;-0.370;2023-03-16T15:47:47;5.53;;;1.67;;
21527;SDS011;10925;49.102;-0.370;2023-03-16T15:50:13;3.50;;;1.52;;
21527;SDS011;10925;49.102;-0.370;2023-03-16T15:52:43;5.15;;;2.00;;
21527;SDS011;10925;49.102;-0.370;2023-03-16T15:55:21;8.93;;;2.17;;
21527;SDS011;10925;49.102;-0.370;2023-03-16T15:57:48;8.05;;;1.83;;
21527;SDS011;10925;49.102;-0.370;2023-03-16T16:00:27;8.40;;;2.00;;
21527;SDS011;10925;49.102;-0.370;2023-03-16T16:05:20;6.25;;;1.70;;
21527;SDS011;10925;49.102;-0.370;2023-03-16T16:07:49;3.95;;;1.65;;
21527;SDS011;10925;49.102;-0.370;2023-03-16T16:10:24;4.38;;;1.65;;
21527;SDS011;10925;49.102;-0.370;2023-03-16T16:12:53;5.38;;;1.75;;
21527;SDS011;10925;49.102;-0.370;2023-03-16T16:17:46;4.10;;;1.63;;
21527;SDS011;10925;49.102;-0.370;2023-03-16T16:20:34;4.28;;;1.70;;
21527;SDS011;10925;49.102;-0.370;2023-03-16T16:22:59;3.00;;;1.70;;
21527;SDS011;10925;49.102;-0.370;2023-03-16T16:25:33;5.60;;;1.90;;
21527;SDS011;10925;49.102;-0.370;2023-03-16T16:28:00;7.18;;;2.20;;
21527;SDS011;10925;49.102;-0.370;2023-03-16T16:30:26;3.45;;;1.55;;